Pagrindinis puslapis
METAR-TAF:

METAR-TAF

Oro uostai :

Sandnessjøen, Norvegija

platuma: 65-58N, ilguma: 012-28E, Aukštis: 1 m

Dabartinis oras

Ataskaita buvo paskelbta 25 minutes, ne 20:20 UTC
Vėjas 7 kt iš Šiaurės Rytų, svyruoja nuo Šiaurės ir Rytų
Temperatūra 17°C
Drėgmė 55%
Slėgis 1008 hPa
Matomumas 10 km arba daugiau
Mažai debesys ne aukštis 4500 ft
Išsisklaidę debesys ne aukštis 6500 ft
Su prošvaistėmis ne aukštis 8800 ft

METAR: ENST 162020Z 04007KT 360V080 9999 FEW045 SCT065 BKN088 17/08 Q1008 RMK WIND 300FT 12006G19KT

Laikas: 22:45 (20:45 UTC)

Prognozė

Ataskaita buvo paskelbta 6 valandos ir 45 minutes, ne 14:00 UTC
Prognozė galioja nuo 16 metu 15 UTC su 16 metu 21 UTC
Vėjas 9 kt iš Rytų/Pietryčių
Matomumas 10 km arba daugiau
Išsisklaidę debesys ne aukštis 2000 ft
Su prošvaistėmis ne aukštis 9000 ft
lietus
Laikinai
nuo 16 metu 15 UTC su 16 metu 20 UTC
Išsisklaidę debesys ne aukštis 3000 ft, Liūtiniai kamuoliniai debesys.

TAF: ENST 161400Z 1615/1621 12009KT 9999 -SHRA SCT020 BKN090 TEMPO 1615/1620 SCT030CB

Orai ataskaitas ir orų prognozės (METAR, TAF).

turimą stotys yra geltonos ir raudonos taškus žemėlapyje.

Perkelti pele per norėdami pamatyti stoties vardą.

Tada spustelėkite, norėdami matyti oro stebėjimo ir prognozės.

Norėdami pakeisti žemėlapį: spustelėkite ant žalios mygtukų su juodo kryžiaus žemyn,; žalią mygtuką su brūkšneliu, jei norite nutolinti; arba žalių rodyklių gretimoms žemėlapius.


METAR-TAF: